sensor_id;sensor_type;location;lat;lon;timestamp;temperature;humidity
26655;DHT22;14278;50.784;4.630;2022-11-12T00:01:25;8.60;99.90
26655;DHT22;14278;50.784;4.630;2022-11-12T00:03:51;8.50;99.90
26655;DHT22;14278;50.784;4.630;2022-11-12T00:06:16;8.30;99.90
26655;DHT22;14278;50.784;4.630;2022-11-12T00:08:42;7.90;99.90
26655;DHT22;14278;50.784;4.630;2022-11-12T00:11:08;7.70;99.90
26655;DHT22;14278;50.784;4.630;2022-11-12T00:13:34;7.60;99.90
26655;DHT22;14278;50.784;4.630;2022-11-12T00:16:00;7.50;99.90
26655;DHT22;14278;50.784;4.630;2022-11-12T00:18:26;7.50;99.90
26655;DHT22;14278;50.784;4.630;2022-11-12T00:20:51;7.50;99.90
26655;DHT22;14278;50.784;4.630;2022-11-12T00:23:18;7.50;99.90
26655;DHT22;14278;50.784;4.630;2022-11-12T00:25:43;7.80;99.90
26655;DHT22;14278;50.784;4.630;2022-11-12T00:28:09;7.60;99.90
26655;DHT22;14278;50.784;4.630;2022-11-12T00:30:39;7.80;99.90
26655;DHT22;14278;50.784;4.630;2022-11-12T00:33:05;8.10;99.90
26655;DHT22;14278;50.784;4.630;2022-11-12T00:35:32;7.90;99.90
26655;DHT22;14278;50.784;4.630;2022-11-12T00:37:58;7.80;99.90
26655;DHT22;14278;50.784;4.630;2022-11-12T00:40:25;8.00;99.90
26655;DHT22;14278;50.784;4.630;2022-11-12T00:42:51;8.10;99.90
26655;DHT22;14278;50.784;4.630;2022-11-12T00:45:20;8.10;99.90
26655;DHT22;14278;50.784;4.630;2022-11-12T00:47:46;8.00;99.90
26655;DHT22;14278;50.784;4.630;2022-11-12T00:50:12;7.80;99.90
26655;DHT22;14278;50.784;4.630;2022-11-12T00:52:40;7.90;99.90
26655;DHT22;14278;50.784;4.630;2022-11-12T00:55:06;7.90;99.90
26655;DHT22;14278;50.784;4.630;2022-11-12T00:57:32;7.70;99.90
26655;DHT22;14278;50.784;4.630;2022-11-12T00:59:58;7.80;99.90
26655;DHT22;14278;50.784;4.630;2022-11-12T01:02:24;8.10;99.90
26655;DHT22;14278;50.784;4.630;2022-11-12T01:04:50;8.20;99.90
26655;DHT22;14278;50.784;4.630;2022-11-12T01:07:15;8.10;99.90
26655;DHT22;14278;50.784;4.630;2022-11-12T01:09:41;7.60;99.90
26655;DHT22;14278;50.784;4.630;2022-11-12T01:12:07;7.60;99.90
26655;DHT22;14278;50.784;4.630;2022-11-12T01:14:34;7.40;99.90
26655;DHT22;14278;50.784;4.630;2022-11-12T01:17:00;7.30;99.90
26655;DHT22;14278;50.784;4.630;2022-11-12T01:19:26;7.60;99.90
26655;DHT22;14278;50.784;4.630;2022-11-12T01:21:52;8.00;99.90
26655;DHT22;14278;50.784;4.630;2022-11-12T01:24:18;8.20;99.90
26655;DHT22;14278;50.784;4.630;2022-11-12T01:26:43;8.30;99.90
26655;DHT22;14278;50.784;4.630;2022-11-12T01:29:09;8.30;99.90
26655;DHT22;14278;50.784;4.630;2022-11-12T01:31:36;8.50;99.90
26655;DHT22;14278;50.784;4.630;2022-11-12T01:34:05;8.10;99.90
26655;DHT22;14278;50.784;4.630;2022-11-12T01:36:34;8.10;99.90
26655;DHT22;14278;50.784;4.630;2022-11-12T01:39:00;8.00;99.90
26655;DHT22;14278;50.784;4.630;2022-11-12T01:41:30;8.00;99.90
26655;DHT22;14278;50.784;4.630;2022-11-12T01:44:09;7.60;99.90
26655;DHT22;14278;50.784;4.630;2022-11-12T01:46:46;7.40;99.90
26655;DHT22;14278;50.784;4.630;2022-11-12T01:51:56;7.70;99.90
26655;DHT22;14278;50.784;4.630;2022-11-12T01:54:24;7.50;99.90
26655;DHT22;14278;50.784;4.630;2022-11-12T01:56:50;7.60;99.90
26655;DHT22;14278;50.784;4.630;2022-11-12T01:59:24;7.80;99.90
26655;DHT22;14278;50.784;4.630;2022-11-12T02:01:51;7.90;99.90
26655;DHT22;14278;50.784;4.630;2022-11-12T02:04:17;7.60;99.90
26655;DHT22;14278;50.784;4.630;2022-11-12T02:06:44;7.60;99.90
26655;DHT22;14278;50.784;4.630;2022-11-12T02:09:12;7.50;99.90
26655;DHT22;14278;50.784;4.630;2022-11-12T02:11:38;7.30;99.90
26655;DHT22;14278;50.784;4.630;2022-11-12T02:14:04;7.50;99.90
26655;DHT22;14278;50.784;4.630;2022-11-12T02:16:41;7.30;99.90
26655;DHT22;14278;50.784;4.630;2022-11-12T02:19:11;7.30;99.90
26655;DHT22;14278;50.784;4.630;2022-11-12T02:21:37;7.30;99.90
26655;DHT22;14278;50.784;4.630;2022-11-12T02:24:27;7.10;99.90
26655;DHT22;14278;50.784;4.630;2022-11-12T02:26:53;7.10;99.90
26655;DHT22;14278;50.784;4.630;2022-11-12T02:29:20;7.20;99.90
26655;DHT22;14278;50.784;4.630;2022-11-12T02:31:46;7.50;99.90
26655;DHT22;14278;50.784;4.630;2022-11-12T02:34:12;7.70;99.90
26655;DHT22;14278;50.784;4.630;2022-11-12T02:36:38;7.90;99.90
26655;DHT22;14278;50.784;4.630;2022-11-12T02:39:04;7.80;99.90
26655;DHT22;14278;50.784;4.630;2022-11-12T02:41:31;7.90;99.90
26655;DHT22;14278;50.784;4.630;2022-11-12T02:43:56;7.70;99.90
26655;DHT22;14278;50.784;4.630;2022-11-12T02:46:22;7.50;99.90
26655;DHT22;14278;50.784;4.630;2022-11-12T02:48:48;7.00;99.90
26655;DHT22;14278;50.784;4.630;2022-11-12T02:51:14;6.80;99.90
26655;DHT22;14278;50.784;4.630;2022-11-12T02:53:40;6.80;99.90
26655;DHT22;14278;50.784;4.630;2022-11-12T02:56:06;7.10;99.90
26655;DHT22;14278;50.784;4.630;2022-11-12T02:58:32;7.00;99.90
26655;DHT22;14278;50.784;4.630;2022-11-12T03:00:58;7.00;99.90
26655;DHT22;14278;50.784;4.630;2022-11-12T03:03:24;6.90;99.90
26655;DHT22;14278;50.784;4.630;2022-11-12T03:05:59;6.90;99.90
26655;DHT22;14278;50.784;4.630;2022-11-12T03:08:25;7.10;99.90
26655;DHT22;14278;50.784;4.630;2022-11-12T03:10:51;7.10;99.90
26655;DHT22;14278;50.784;4.630;2022-11-12T03:13:18;7.10;99.90
26655;DHT22;14278;50.784;4.630;2022-11-12T03:15:44;6.90;99.90
26655;DHT22;14278;50.784;4.630;2022-11-12T03:18:11;7.20;99.90
26655;DHT22;14278;50.784;4.630;2022-11-12T03:20:37;7.40;99.90
26655;DHT22;14278;50.784;4.630;2022-11-12T03:23:05;7.00;99.90
26655;DHT22;14278;50.784;4.630;2022-11-12T03:25:32;6.90;99.90
26655;DHT22;14278;50.784;4.630;2022-11-12T03:28:03;6.80;99.90
26655;DHT22;14278;50.784;4.630;2022-11-12T03:30:32;7.10;99.90
26655;DHT22;14278;50.784;4.630;2022-11-12T03:32:58;7.30;99.90
26655;DHT22;14278;50.784;4.630;2022-11-12T03:35:23;7.40;99.90
26655;DHT22;14278;50.784;4.630;2022-11-12T03:37:51;7.40;99.90
26655;DHT22;14278;50.784;4.630;2022-11-12T03:40:17;6.90;99.90
26655;DHT22;14278;50.784;4.630;2022-11-12T03:42:45;6.90;99.90
26655;DHT22;14278;50.784;4.630;2022-11-12T03:45:11;6.90;99.90
26655;DHT22;14278;50.784;4.630;2022-11-12T03:47:43;6.60;99.90
26655;DHT22;14278;50.784;4.630;2022-11-12T03:50:10;6.40;99.90
26655;DHT22;14278;50.784;4.630;2022-11-12T03:52:36;6.50;99.90
26655;DHT22;14278;50.784;4.630;2022-11-12T03:55:04;6.60;99.90
26655;DHT22;14278;50.784;4.630;2022-11-12T03:57:29;6.50;99.90
26655;DHT22;14278;50.784;4.630;2022-11-12T03:59:55;6.50;99.90
26655;DHT22;14278;50.784;4.630;2022-11-12T04:02:21;6.40;99.90
26655;DHT22;14278;50.784;4.630;2022-11-12T04:04:50;6.50;99.90
26655;DHT22;14278;50.784;4.630;2022-11-12T04:07:41;6.50;99.90
26655;DHT22;14278;50.784;4.630;2022-11-12T04:10:25;6.40;99.90
26655;DHT22;14278;50.784;4.630;2022-11-12T04:12:54;6.50;99.90
26655;DHT22;14278;50.784;4.630;2022-11-12T04:15:38;6.70;99.90
26655;DHT22;14278;50.784;4.630;2022-11-12T04:18:05;6.80;99.90
26655;DHT22;14278;50.784;4.630;2022-11-12T04:20:49;6.70;99.90
26655;DHT22;14278;50.784;4.630;2022-11-12T04:23:33;6.60;99.90
26655;DHT22;14278;50.784;4.630;2022-11-12T04:25:59;6.30;99.90
26655;DHT22;14278;50.784;4.630;2022-11-12T04:28:43;6.20;99.90
26655;DHT22;14278;50.784;4.630;2022-11-12T04:31:29;6.40;99.90
26655;DHT22;14278;50.784;4.630;2022-11-12T04:33:55;6.50;99.90
26655;DHT22;14278;50.784;4.630;2022-11-12T04:36:41;6.60;99.90
26655;DHT22;14278;50.784;4.630;2022-11-12T04:39:07;7.00;99.90
26655;DHT22;14278;50.784;4.630;2022-11-12T04:41:33;7.00;99.90
26655;DHT22;14278;50.784;4.630;2022-11-12T04:44:17;6.80;99.90
26655;DHT22;14278;50.784;4.630;2022-11-12T04:47:01;6.40;99.90
26655;DHT22;14278;50.784;4.630;2022-11-12T04:49:27;6.50;99.90
26655;DHT22;14278;50.784;4.630;2022-11-12T04:51:53;6.50;99.90
26655;DHT22;14278;50.784;4.630;2022-11-12T04:54:31;6.10;99.90
26655;DHT22;14278;50.784;4.630;2022-11-12T04:56:58;6.00;99.90
26655;DHT22;14278;50.784;4.630;2022-11-12T04:59:24;6.10;99.90
26655;DHT22;14278;50.784;4.630;2022-11-12T05:01:51;6.30;99.90
26655;DHT22;14278;50.784;4.630;2022-11-12T05:04:17;6.20;99.90
26655;DHT22;14278;50.784;4.630;2022-11-12T05:06:43;6.20;99.90
26655;DHT22;14278;50.784;4.630;2022-11-12T05:09:21;6.30;99.90
26655;DHT22;14278;50.784;4.630;2022-11-12T05:11:47;6.30;99.90
26655;DHT22;14278;50.784;4.630;2022-11-12T05:14:13;6.30;99.90
26655;DHT22;14278;50.784;4.630;2022-11-12T05:16:39;5.90;99.90
26655;DHT22;14278;50.784;4.630;2022-11-12T05:19:04;5.80;99.90
26655;DHT22;14278;50.784;4.630;2022-11-12T05:21:31;5.50;99.90
26655;DHT22;14278;50.784;4.630;2022-11-12T05:24:15;5.50;99.90
26655;DHT22;14278;50.784;4.630;2022-11-12T05:26:41;5.70;99.90
26655;DHT22;14278;50.784;4.630;2022-11-12T05:29:07;6.30;99.90
26655;DHT22;14278;50.784;4.630;2022-11-12T05:31:33;6.40;99.90
26655;DHT22;14278;50.784;4.630;2022-11-12T05:34:00;6.70;99.90
26655;DHT22;14278;50.784;4.630;2022-11-12T05:36:25;6.80;99.90
26655;DHT22;14278;50.784;4.630;2022-11-12T05:38:51;6.80;99.90
26655;DHT22;14278;50.784;4.630;2022-11-12T05:41:18;6.30;99.90
26655;DHT22;14278;50.784;4.630;2022-11-12T05:43:43;6.10;99.90
26655;DHT22;14278;50.784;4.630;2022-11-12T05:46:10;5.80;99.90
26655;DHT22;14278;50.784;4.630;2022-11-12T05:48:35;5.80;99.90
26655;DHT22;14278;50.784;4.630;2022-11-12T05:51:01;5.80;99.90
26655;DHT22;14278;50.784;4.630;2022-11-12T05:53:28;6.00;99.90
26655;DHT22;14278;50.784;4.630;2022-11-12T05:55:54;6.10;99.90
26655;DHT22;14278;50.784;4.630;2022-11-12T05:58:25;5.70;99.90
26655;DHT22;14278;50.784;4.630;2022-11-12T06:00:51;5.60;99.90
26655;DHT22;14278;50.784;4.630;2022-11-12T06:03:16;5.70;99.90
26655;DHT22;14278;50.784;4.630;2022-11-12T06:05:43;6.00;99.90
26655;DHT22;14278;50.784;4.630;2022-11-12T06:08:09;6.00;99.90
26655;DHT22;14278;50.784;4.630;2022-11-12T06:10:35;5.70;99.90
26655;DHT22;14278;50.784;4.630;2022-11-12T06:13:01;5.90;99.90
26655;DHT22;14278;50.784;4.630;2022-11-12T06:15:26;6.10;99.90
26655;DHT22;14278;50.784;4.630;2022-11-12T06:17:53;5.70;99.90
26655;DHT22;14278;50.784;4.630;2022-11-12T06:20:20;5.60;99.90
26655;DHT22;14278;50.784;4.630;2022-11-12T06:22:47;5.50;99.90
26655;DHT22;14278;50.784;4.630;2022-11-12T06:25:13;5.30;99.90
26655;DHT22;14278;50.784;4.630;2022-11-12T06:27:39;5.30;99.90
26655;DHT22;14278;50.784;4.630;2022-11-12T06:30:06;5.10;99.90
26655;DHT22;14278;50.784;4.630;2022-11-12T06:32:32;5.20;99.90
26655;DHT22;14278;50.784;4.630;2022-11-12T06:34:58;5.50;99.90
26655;DHT22;14278;50.784;4.630;2022-11-12T06:37:24;6.00;99.90
26655;DHT22;14278;50.784;4.630;2022-11-12T06:39:50;6.30;99.90
26655;DHT22;14278;50.784;4.630;2022-11-12T06:42:16;6.10;99.90
26655;DHT22;14278;50.784;4.630;2022-11-12T06:44:42;5.80;99.90
26655;DHT22;14278;50.784;4.630;2022-11-12T06:47:10;5.60;99.90
26655;DHT22;14278;50.784;4.630;2022-11-12T06:49:35;5.50;99.90
26655;DHT22;14278;50.784;4.630;2022-11-12T06:52:01;5.40;99.90
26655;DHT22;14278;50.784;4.630;2022-11-12T06:54:28;5.50;99.90
26655;DHT22;14278;50.784;4.630;2022-11-12T06:56:53;5.80;99.90
26655;DHT22;14278;50.784;4.630;2022-11-12T06:59:20;6.10;99.90
26655;DHT22;14278;50.784;4.630;2022-11-12T07:01:46;6.30;99.90
26655;DHT22;14278;50.784;4.630;2022-11-12T07:04:12;6.60;99.90
26655;DHT22;14278;50.784;4.630;2022-11-12T07:06:38;6.40;99.90
26655;DHT22;14278;50.784;4.630;2022-11-12T07:09:04;6.30;99.90
26655;DHT22;14278;50.784;4.630;2022-11-12T07:11:30;6.40;99.90
26655;DHT22;14278;50.784;4.630;2022-11-12T07:13:56;6.40;99.90
26655;DHT22;14278;50.784;4.630;2022-11-12T07:16:22;6.00;99.90
26655;DHT22;14278;50.784;4.630;2022-11-12T07:18:49;5.90;99.90
26655;DHT22;14278;50.784;4.630;2022-11-12T07:21:19;5.80;99.90
26655;DHT22;14278;50.784;4.630;2022-11-12T07:23:46;5.90;99.90
26655;DHT22;14278;50.784;4.630;2022-11-12T07:26:13;5.90;99.90
26655;DHT22;14278;50.784;4.630;2022-11-12T07:28:40;5.90;99.90
26655;DHT22;14278;50.784;4.630;2022-11-12T07:31:09;5.90;99.90
26655;DHT22;14278;50.784;4.630;2022-11-12T07:33:35;5.80;99.90
26655;DHT22;14278;50.784;4.630;2022-11-12T07:36:04;5.80;99.90
26655;DHT22;14278;50.784;4.630;2022-11-12T07:38:31;5.90;99.90
26655;DHT22;14278;50.784;4.630;2022-11-12T07:41:02;6.00;99.90
26655;DHT22;14278;50.784;4.630;2022-11-12T07:43:29;6.30;99.90
26655;DHT22;14278;50.784;4.630;2022-11-12T07:46:00;6.50;99.90
26655;DHT22;14278;50.784;4.630;2022-11-12T07:48:28;6.60;99.90
26655;DHT22;14278;50.784;4.630;2022-11-12T07:51:01;6.60;99.90
26655;DHT22;14278;50.784;4.630;2022-11-12T07:53:28;7.10;99.90
26655;DHT22;14278;50.784;4.630;2022-11-12T07:55:55;7.10;99.90
26655;DHT22;14278;50.784;4.630;2022-11-12T07:58:21;7.30;99.90
26655;DHT22;14278;50.784;4.630;2022-11-12T08:00:48;7.10;99.90
26655;DHT22;14278;50.784;4.630;2022-11-12T08:03:14;6.80;99.90
26655;DHT22;14278;50.784;4.630;2022-11-12T08:05:40;6.30;99.90
26655;DHT22;14278;50.784;4.630;2022-11-12T08:08:07;6.30;99.90
26655;DHT22;14278;50.784;4.630;2022-11-12T08:10:32;6.40;99.90
26655;DHT22;14278;50.784;4.630;2022-11-12T08:12:59;6.70;99.90
26655;DHT22;14278;50.784;4.630;2022-11-12T08:15:24;7.10;99.90
26655;DHT22;14278;50.784;4.630;2022-11-12T08:17:50;7.10;99.90
26655;DHT22;14278;50.784;4.630;2022-11-12T08:20:16;7.10;99.90
26655;DHT22;14278;50.784;4.630;2022-11-12T08:22:42;7.30;99.90
26655;DHT22;14278;50.784;4.630;2022-11-12T08:25:08;7.60;99.90
26655;DHT22;14278;50.784;4.630;2022-11-12T08:27:34;8.10;99.90
26655;DHT22;14278;50.784;4.630;2022-11-12T08:30:01;7.50;99.90
26655;DHT22;14278;50.784;4.630;2022-11-12T08:32:27;7.70;99.90
26655;DHT22;14278;50.784;4.630;2022-11-12T08:34:53;7.90;99.90
26655;DHT22;14278;50.784;4.630;2022-11-12T08:37:19;7.90;99.90
26655;DHT22;14278;50.784;4.630;2022-11-12T08:39:45;8.10;99.90
26655;DHT22;14278;50.784;4.630;2022-11-12T08:42:10;8.20;99.90
26655;DHT22;14278;50.784;4.630;2022-11-12T08:44:37;8.80;99.90
26655;DHT22;14278;50.784;4.630;2022-11-12T08:47:02;9.80;99.90
26655;DHT22;14278;50.784;4.630;2022-11-12T08:49:29;11.00;99.90
26655;DHT22;14278;50.784;4.630;2022-11-12T08:51:55;12.10;99.90
26655;DHT22;14278;50.784;4.630;2022-11-12T08:54:22;11.10;99.90
26655;DHT22;14278;50.784;4.630;2022-11-12T08:56:48;10.20;99.90
26655;DHT22;14278;50.784;4.630;2022-11-12T08:59:14;9.30;99.90
26655;DHT22;14278;50.784;4.630;2022-11-12T09:01:40;8.90;99.90
26655;DHT22;14278;50.784;4.630;2022-11-12T09:04:06;9.40;99.90
26655;DHT22;14278;50.784;4.630;2022-11-12T09:06:32;9.60;99.90
26655;DHT22;14278;50.784;4.630;2022-11-12T09:08:58;9.40;99.90
26655;DHT22;14278;50.784;4.630;2022-11-12T09:11:24;9.90;99.90
26655;DHT22;14278;50.784;4.630;2022-11-12T09:13:54;10.30;99.90
26655;DHT22;14278;50.784;4.630;2022-11-12T09:16:20;10.50;99.90
26655;DHT22;14278;50.784;4.630;2022-11-12T09:18:46;10.60;99.90
26655;DHT22;14278;50.784;4.630;2022-11-12T09:21:13;10.20;99.90
26655;DHT22;14278;50.784;4.630;2022-11-12T09:23:39;10.50;99.90
26655;DHT22;14278;50.784;4.630;2022-11-12T09:26:05;10.20;99.90
26655;DHT22;14278;50.784;4.630;2022-11-12T09:28:32;10.50;99.90
26655;DHT22;14278;50.784;4.630;2022-11-12T09:30:58;10.10;99.90
26655;DHT22;14278;50.784;4.630;2022-11-12T09:33:29;10.50;99.90
26655;DHT22;14278;50.784;4.630;2022-11-12T09:35:59;10.30;99.90
26655;DHT22;14278;50.784;4.630;2022-11-12T09:38:26;9.80;99.90
26655;DHT22;14278;50.784;4.630;2022-11-12T09:43:44;10.00;99.90
26655;DHT22;14278;50.784;4.630;2022-11-12T09:46:27;9.80;99.90
26655;DHT22;14278;50.784;4.630;2022-11-12T09:49:01;10.00;99.90
26655;DHT22;14278;50.784;4.630;2022-11-12T09:51:32;10.30;99.90
26655;DHT22;14278;50.784;4.630;2022-11-12T09:54:03;10.30;99.90
26655;DHT22;14278;50.784;4.630;2022-11-12T09:56:31;10.70;99.90
26655;DHT22;14278;50.784;4.630;2022-11-12T09:58:57;10.60;99.90
26655;DHT22;14278;50.784;4.630;2022-11-12T10:01:37;10.60;99.90
26655;DHT22;14278;50.784;4.630;2022-11-12T10:04:27;10.50;99.90
26655;DHT22;14278;50.784;4.630;2022-11-12T10:10:14;11.00;99.90
26655;DHT22;14278;50.784;4.630;2022-11-12T10:12:54;11.00;99.90
26655;DHT22;14278;50.784;4.630;2022-11-12T10:15:36;11.00;99.90
26655;DHT22;14278;50.784;4.630;2022-11-12T10:18:40;10.60;99.90
26655;DHT22;14278;50.784;4.630;2022-11-12T10:24:10;11.30;99.90
26655;DHT22;14278;50.784;4.630;2022-11-12T10:26:38;11.70;99.90
26655;DHT22;14278;50.784;4.630;2022-11-12T10:31:30;11.40;99.90
26655;DHT22;14278;50.784;4.630;2022-11-12T10:36:44;11.40;99.90
26655;DHT22;14278;50.784;4.630;2022-11-12T10:39:35;11.70;99.90
26655;DHT22;14278;50.784;4.630;2022-11-12T10:44:31;12.70;99.90
26655;DHT22;14278;50.784;4.630;2022-11-12T10:52:31;16.00;99.90
26655;DHT22;14278;50.784;4.630;2022-11-12T10:57:28;19.20;99.90
26655;DHT22;14278;50.784;4.630;2022-11-12T11:02:51;21.40;99.90
26655;DHT22;14278;50.784;4.630;2022-11-12T11:05:37;20.50;99.90
26655;DHT22;14278;50.784;4.630;2022-11-12T11:08:13;22.10;99.90
26655;DHT22;14278;50.784;4.630;2022-11-12T11:10:39;23.10;99.90
26655;DHT22;14278;50.784;4.630;2022-11-12T11:15:58;24.40;99.90
26655;DHT22;14278;50.784;4.630;2022-11-12T11:18:24;23.80;99.90
26655;DHT22;14278;50.784;4.630;2022-11-12T11:21:04;24.30;99.90
26655;DHT22;14278;50.784;4.630;2022-11-12T11:23:45;24.60;99.90
26655;DHT22;14278;50.784;4.630;2022-11-12T11:38:28;23.70;99.90
26655;DHT22;14278;50.784;4.630;2022-11-12T11:40:43;23.40;99.90
26655;DHT22;14278;50.784;4.630;2022-11-12T11:46:56;24.90;99.90
26655;DHT22;14278;50.784;4.630;2022-11-12T11:49:34;25.50;99.90
26655;DHT22;14278;50.784;4.630;2022-11-12T11:52:24;25.40;99.90
26655;DHT22;14278;50.784;4.630;2022-11-12T11:55:13;25.10;99.90
26655;DHT22;14278;50.784;4.630;2022-11-12T11:58:24;25.10;99.90
26655;DHT22;14278;50.784;4.630;2022-11-12T12:00:57;24.80;99.90
26655;DHT22;14278;50.784;4.630;2022-11-12T12:06:27;24.70;99.90
26655;DHT22;14278;50.784;4.630;2022-11-12T12:12:12;24.70;99.90
26655;DHT22;14278;50.784;4.630;2022-11-12T12:22:34;22.60;99.90
26655;DHT22;14278;50.784;4.630;2022-11-12T12:25:08;22.50;99.90
26655;DHT22;14278;50.784;4.630;2022-11-12T12:27:42;22.40;99.90
26655;DHT22;14278;50.784;4.630;2022-11-12T12:30:21;21.40;99.90
26655;DHT22;14278;50.784;4.630;2022-11-12T12:32:58;21.00;99.90
26655;DHT22;14278;50.784;4.630;2022-11-12T12:35:38;21.00;99.90
26655;DHT22;14278;50.784;4.630;2022-11-12T12:40:34;21.20;99.90
26655;DHT22;14278;50.784;4.630;2022-11-12T12:45:56;21.00;99.90
26655;DHT22;14278;50.784;4.630;2022-11-12T12:48:30;20.70;99.90
26655;DHT22;14278;50.784;4.630;2022-11-12T12:50:57;20.80;99.90
26655;DHT22;14278;50.784;4.630;2022-11-12T12:55:59;20.00;99.90
26655;DHT22;14278;50.784;4.630;2022-11-12T12:58:41;19.80;99.90
26655;DHT22;14278;50.784;4.630;2022-11-12T13:01:29;19.30;99.90
26655;DHT22;14278;50.784;4.630;2022-11-12T13:06:35;18.80;99.90
26655;DHT22;14278;50.784;4.630;2022-11-12T13:17:04;17.70;99.90
26655;DHT22;14278;50.784;4.630;2022-11-12T13:32:56;18.20;99.90
26655;DHT22;14278;50.784;4.630;2022-11-12T13:35:27;18.10;99.90
26655;DHT22;14278;50.784;4.630;2022-11-12T13:48:41;16.90;99.90
26655;DHT22;14278;50.784;4.630;2022-11-12T13:53:53;17.40;99.90
26655;DHT22;14278;50.784;4.630;2022-11-12T13:56:30;17.50;99.90
26655;DHT22;14278;50.784;4.630;2022-11-12T13:59:19;17.70;99.90
26655;DHT22;14278;50.784;4.630;2022-11-12T14:01:50;17.50;99.90
26655;DHT22;14278;50.784;4.630;2022-11-12T14:04:21;17.10;99.90
26655;DHT22;14278;50.784;4.630;2022-11-12T14:06:52;17.00;99.90
26655;DHT22;14278;50.784;4.630;2022-11-12T14:09:34;17.10;99.90
26655;DHT22;14278;50.784;4.630;2022-11-12T14:18:07;17.00;99.90
26655;DHT22;14278;50.784;4.630;2022-11-12T14:20:38;17.10;99.90
26655;DHT22;14278;50.784;4.630;2022-11-12T14:23:16;17.40;99.90
26655;DHT22;14278;50.784;4.630;2022-11-12T14:25:54;17.50;99.90
26655;DHT22;14278;50.784;4.630;2022-11-12T14:28:32;17.30;99.90
26655;DHT22;14278;50.784;4.630;2022-11-12T14:30:59;17.30;99.90
26655;DHT22;14278;50.784;4.630;2022-11-12T14:33:27;17.00;99.90
26655;DHT22;14278;50.784;4.630;2022-11-12T14:36:02;16.90;99.90
26655;DHT22;14278;50.784;4.630;2022-11-12T14:38:38;17.20;99.90
26655;DHT22;14278;50.784;4.630;2022-11-12T14:41:20;17.50;99.90
26655;DHT22;14278;50.784;4.630;2022-11-12T14:43:49;17.40;99.90
26655;DHT22;14278;50.784;4.630;2022-11-12T14:49:16;16.80;99.90
26655;DHT22;14278;50.784;4.630;2022-11-12T14:51:52;16.70;99.90
26655;DHT22;14278;50.784;4.630;2022-11-12T14:54:47;16.50;99.90
26655;DHT22;14278;50.784;4.630;2022-11-12T14:57:24;16.50;99.90
26655;DHT22;14278;50.784;4.630;2022-11-12T14:59:50;16.60;99.90
26655;DHT22;14278;50.784;4.630;2022-11-12T15:02:20;16.60;99.90
26655;DHT22;14278;50.784;4.630;2022-11-12T15:05:10;16.60;99.90
26655;DHT22;14278;50.784;4.630;2022-11-12T15:07:56;16.50;99.90
26655;DHT22;14278;50.784;4.630;2022-11-12T15:13:15;16.40;99.90
26655;DHT22;14278;50.784;4.630;2022-11-12T15:15:54;16.40;99.90
26655;DHT22;14278;50.784;4.630;2022-11-12T15:18:24;16.40;99.90
26655;DHT22;14278;50.784;4.630;2022-11-12T15:21:19;16.40;99.90
26655;DHT22;14278;50.784;4.630;2022-11-12T15:26:42;16.20;99.90
26655;DHT22;14278;50.784;4.630;2022-11-12T15:29:17;16.00;99.90
26655;DHT22;14278;50.784;4.630;2022-11-12T15:31:47;16.00;99.90
26655;DHT22;14278;50.784;4.630;2022-11-12T15:34:34;15.90;99.90
26655;DHT22;14278;50.784;4.630;2022-11-12T15:37:11;15.60;99.90
26655;DHT22;14278;50.784;4.630;2022-11-12T15:39:52;15.40;99.90
26655;DHT22;14278;50.784;4.630;2022-11-12T15:42:31;15.60;99.90
26655;DHT22;14278;50.784;4.630;2022-11-12T15:45:01;15.70;99.90
26655;DHT22;14278;50.784;4.630;2022-11-12T15:47:27;15.70;99.90
26655;DHT22;14278;50.784;4.630;2022-11-12T15:49:55;15.50;99.90
26655;DHT22;14278;50.784;4.630;2022-11-12T15:52:22;15.30;99.90
26655;DHT22;14278;50.784;4.630;2022-11-12T15:54:48;15.20;99.90
26655;DHT22;14278;50.784;4.630;2022-11-12T15:57:25;15.10;99.90
26655;DHT22;14278;50.784;4.630;2022-11-12T16:00:02;15.10;99.90
26655;DHT22;14278;50.784;4.630;2022-11-12T16:02:29;15.00;99.90
26655;DHT22;14278;50.784;4.630;2022-11-12T16:04:56;15.10;99.90
26655;DHT22;14278;50.784;4.630;2022-11-12T16:07:21;15.00;99.90
26655;DHT22;14278;50.784;4.630;2022-11-12T16:09:47;14.90;99.90
26655;DHT22;14278;50.784;4.630;2022-11-12T16:12:14;14.90;99.90
26655;DHT22;14278;50.784;4.630;2022-11-12T16:14:40;14.80;99.90
26655;DHT22;14278;50.784;4.630;2022-11-12T16:17:12;14.70;99.90
26655;DHT22;14278;50.784;4.630;2022-11-12T16:19:39;14.60;99.90
26655;DHT22;14278;50.784;4.630;2022-11-12T16:22:05;14.50;99.90
26655;DHT22;14278;50.784;4.630;2022-11-12T16:24:38;14.50;99.90
26655;DHT22;14278;50.784;4.630;2022-11-12T16:27:04;14.30;99.90
26655;DHT22;14278;50.784;4.630;2022-11-12T16:29:33;14.20;99.90
26655;DHT22;14278;50.784;4.630;2022-11-12T16:31:59;14.00;99.90
26655;DHT22;14278;50.784;4.630;2022-11-12T16:34:25;13.90;99.90
26655;DHT22;14278;50.784;4.630;2022-11-12T16:36:51;13.90;99.90
26655;DHT22;14278;50.784;4.630;2022-11-12T16:39:17;13.90;99.90
26655;DHT22;14278;50.784;4.630;2022-11-12T16:41:44;13.80;99.90
26655;DHT22;14278;50.784;4.630;2022-11-12T16:44:09;13.70;99.90
26655;DHT22;14278;50.784;4.630;2022-11-12T16:46:36;13.60;99.90
26655;DHT22;14278;50.784;4.630;2022-11-12T16:49:10;13.60;99.90
26655;DHT22;14278;50.784;4.630;2022-11-12T16:51:37;13.60;99.90
26655;DHT22;14278;50.784;4.630;2022-11-12T16:54:03;13.70;99.90
26655;DHT22;14278;50.784;4.630;2022-11-12T16:56:36;13.80;99.90
26655;DHT22;14278;50.784;4.630;2022-11-12T16:59:02;14.00;99.90
26655;DHT22;14278;50.784;4.630;2022-11-12T17:01:32;14.20;99.90
26655;DHT22;14278;50.784;4.630;2022-11-12T17:03:58;14.10;99.90
26655;DHT22;14278;50.784;4.630;2022-11-12T17:06:32;13.90;99.90
26655;DHT22;14278;50.784;4.630;2022-11-12T17:08:59;13.70;99.90
26655;DHT22;14278;50.784;4.630;2022-11-12T17:11:25;13.20;99.90
26655;DHT22;14278;50.784;4.630;2022-11-12T17:13:51;13.30;99.90
26655;DHT22;14278;50.784;4.630;2022-11-12T17:16:18;13.20;99.90
26655;DHT22;14278;50.784;4.630;2022-11-12T17:18:44;12.90;99.90
26655;DHT22;14278;50.784;4.630;2022-11-12T17:21:16;12.70;99.90
26655;DHT22;14278;50.784;4.630;2022-11-12T17:23:45;12.70;99.90
26655;DHT22;14278;50.784;4.630;2022-11-12T17:26:17;12.90;99.90
26655;DHT22;14278;50.784;4.630;2022-11-12T17:28:47;12.90;99.90
26655;DHT22;14278;50.784;4.630;2022-11-12T17:31:21;12.70;99.90
26655;DHT22;14278;50.784;4.630;2022-11-12T17:33:49;12.70;99.90
26655;DHT22;14278;50.784;4.630;2022-11-12T17:36:20;12.70;99.90
26655;DHT22;14278;50.784;4.630;2022-11-12T17:38:48;12.60;99.90
26655;DHT22;14278;50.784;4.630;2022-11-12T17:41:18;12.40;99.90
26655;DHT22;14278;50.784;4.630;2022-11-12T17:43:44;12.30;99.90
26655;DHT22;14278;50.784;4.630;2022-11-12T17:46:12;12.50;99.90
26655;DHT22;14278;50.784;4.630;2022-11-12T17:48:39;12.70;99.90
26655;DHT22;14278;50.784;4.630;2022-11-12T17:51:16;12.50;99.90
26655;DHT22;14278;50.784;4.630;2022-11-12T17:53:45;12.40;99.90
26655;DHT22;14278;50.784;4.630;2022-11-12T17:56:13;12.20;99.90
26655;DHT22;14278;50.784;4.630;2022-11-12T17:58:41;12.40;99.90